Nearby METAR Reports

KLWM - Lawrence,MA, USA
Distance from station: NE 12mi, 19km
Updated: Mon, 25-Jun-2018 3:42am EDT
Rain, Mist, Overcast
Rain, Mist, Overcast
 Wind from NNW
Wind: NNW 7 mph , 11 km/h
Temperature: 66°F , 19°C
Dew Point: 63°F , 17°C
Humidity: 88%
Barometer: 29.81 inHg , 1009.5 hPa
Summary: Rain, Mist
Clouds: Overcast
Visibility: 6 miles , 10 km
Cloud details: Partly Cloudy 600 ft
Mostly Cloudy 1300 ft
Overcast 1700 ft
2018/06/25 07:42 KLWM 250742Z AUTO 34006KT 6SM RA BR SCT006 BKN013 OVC017 19/17 A2981 RMK AO2 P0003 T01940172
KBED - Bedford,MA, USA
Distance from station: SSE 12mi, 19km
Updated: Mon, 25-Jun-2018 3:26am EDT
Light rain, Mist, Overcast
Light rain, Mist, Overcast
 Wind from NNW
Wind: NNW 9 mph , 15 km/h
Temperature: 64°F , 18°C
Dew Point: 64°F , 18°C
Humidity: 100%
Barometer: 29.77 inHg , 1008.1 hPa
Summary: Light rain, Mist
Clouds: Overcast
Visibility: 6 miles , 10 km
Cloud details: Few Clouds 700 ft
Partly Cloudy 1100 ft
Overcast 2000 ft
2018/06/25 07:26 KBED 250726Z AUTO 34008KT 6SM -RA BR FEW007 SCT011 OVC020 18/18 A2977 RMK AO2 RAB0658 P0002 T01830178

Metar display script from Saratoga-Weather.org